createdAt,value
2024-05-09T00:01:50.581Z,3.55
2024-05-09T00:04:16.737Z,3.25
2024-05-09T00:06:42.821Z,3.53
2024-05-09T00:09:08.872Z,3.25
2024-05-09T00:11:35.024Z,3.65
2024-05-09T00:14:01.514Z,3.80
2024-05-09T00:16:27.583Z,3.78
2024-05-09T00:18:54.098Z,3.38
2024-05-09T00:21:20.326Z,3.05
2024-05-09T00:23:46.378Z,3.22
2024-05-09T00:26:16.715Z,2.60
2024-05-09T00:28:42.803Z,2.70
2024-05-09T00:31:08.863Z,2.88
2024-05-09T00:33:35.069Z,3.17
2024-05-09T00:36:01.241Z,2.55
2024-05-09T00:38:27.341Z,3.00
2024-05-09T00:40:53.497Z,3.22
2024-05-09T00:43:19.657Z,2.85
2024-05-09T00:45:46.048Z,3.00
2024-05-09T00:48:16.432Z,2.67
2024-05-09T00:50:46.108Z,3.00
2024-05-09T00:53:14.886Z,2.70
2024-05-09T00:55:41.760Z,2.65
2024-05-09T00:58:11.500Z,2.25
2024-05-09T01:00:40.316Z,2.80
2024-05-09T01:03:09.085Z,2.75
2024-05-09T01:05:38.342Z,2.53
2024-05-09T01:08:05.325Z,2.80
2024-05-09T01:10:34.797Z,2.60
2024-05-09T01:13:05.255Z,2.85
2024-05-09T01:15:31.632Z,3.05
2024-05-09T01:18:00.397Z,2.65
2024-05-09T01:20:37.241Z,2.60
2024-05-09T01:23:08.831Z,2.67
2024-05-09T01:25:35.060Z,2.75
2024-05-09T01:28:01.296Z,2.60
2024-05-09T01:30:33.948Z,2.80
2024-05-09T01:33:02.386Z,2.60
2024-05-09T01:35:28.659Z,2.55
2024-05-09T01:37:54.872Z,2.55
2024-05-09T01:40:28.494Z,2.75
2024-05-09T01:43:00.116Z,2.78
2024-05-09T01:45:26.154Z,3.00
2024-05-09T01:47:52.500Z,3.20
2024-05-09T01:50:28.825Z,2.30
2024-05-09T01:53:02.449Z,2.63
2024-05-09T01:55:28.575Z,2.67
2024-05-09T01:57:54.638Z,2.95
2024-05-09T02:00:30.274Z,2.80
2024-05-09T02:03:04.052Z,2.97
2024-05-09T02:05:30.317Z,2.55
2024-05-09T02:07:56.456Z,2.60
2024-05-09T02:10:26.579Z,2.95
2024-05-09T02:12:58.270Z,2.67
2024-05-09T02:15:24.374Z,2.50
2024-05-09T02:17:50.602Z,2.80
2024-05-09T02:20:23.139Z,2.65
2024-05-09T02:22:56.904Z,2.67
2024-05-09T02:25:23.848Z,3.10
2024-05-09T02:27:50.454Z,2.75
2024-05-09T02:30:22.893Z,2.53
2024-05-09T02:32:56.697Z,3.90
2024-05-09T02:35:22.932Z,2.35
2024-05-09T02:37:49.117Z,2.45
2024-05-09T02:40:21.580Z,2.65
2024-05-09T02:42:51.772Z,3.10
2024-05-09T02:45:17.818Z,2.60
2024-05-09T02:47:44.049Z,2.25
2024-05-09T02:50:13.319Z,2.80
2024-05-09T02:52:42.037Z,2.72
2024-05-09T02:55:08.109Z,2.40
2024-05-09T02:57:34.136Z,2.83
2024-05-09T03:00:00.198Z,2.65
2024-05-09T03:02:26.633Z,2.42
2024-05-09T03:04:52.937Z,2.38
2024-05-09T03:07:20.374Z,2.35
2024-05-09T03:09:46.866Z,2.92
2024-05-09T03:12:12.991Z,2.40
2024-05-09T03:14:39.216Z,2.83
2024-05-09T03:17:05.309Z,2.65
2024-05-09T03:19:31.502Z,2.35
2024-05-09T03:21:58.328Z,2.25
2024-05-09T03:24:24.360Z,2.67
2024-05-09T03:26:50.412Z,2.03
2024-05-09T03:29:16.505Z,2.70
2024-05-09T03:31:42.603Z,2.00
2024-05-09T03:34:10.585Z,2.30
2024-05-09T03:36:40.872Z,1.83
2024-05-09T03:39:09.154Z,2.10
2024-05-09T03:41:35.313Z,1.95
2024-05-09T03:44:01.578Z,2.25
2024-05-09T03:46:27.742Z,1.90
2024-05-09T03:48:53.905Z,2.55
2024-05-09T03:51:20.083Z,2.00
2024-05-09T03:53:46.219Z,2.00
2024-05-09T03:56:12.333Z,2.15
2024-05-09T03:58:38.508Z,1.70
2024-05-09T04:01:05.009Z,1.80
2024-05-09T04:03:31.296Z,1.70
2024-05-09T04:05:57.465Z,1.80
2024-05-09T04:08:23.572Z,1.70
2024-05-09T04:10:49.723Z,1.80
2024-05-09T04:13:15.804Z,1.98
2024-05-09T04:15:41.857Z,2.10
2024-05-09T04:18:08.131Z,1.95
2024-05-09T04:20:38.936Z,1.60
2024-05-09T04:23:10.073Z,1.73
2024-05-09T04:25:36.175Z,1.90
2024-05-09T04:28:02.497Z,1.65
2024-05-09T04:30:37.478Z,1.58
2024-05-09T04:33:08.500Z,2.25
2024-05-09T04:35:36.851Z,1.60
2024-05-09T04:38:03.173Z,1.70
2024-05-09T04:40:34.067Z,1.52
2024-05-09T04:43:03.042Z,1.75
2024-05-09T04:45:29.082Z,1.63
2024-05-09T04:47:55.349Z,1.85
2024-05-09T04:50:30.176Z,1.80
2024-05-09T04:53:02.992Z,1.40
2024-05-09T04:55:29.159Z,1.63
2024-05-09T04:57:55.188Z,1.83
2024-05-09T05:00:28.643Z,1.92
2024-05-09T05:03:05.102Z,1.77
2024-05-09T05:05:31.566Z,2.00
2024-05-09T05:07:57.648Z,1.65
2024-05-09T05:10:32.935Z,1.65
2024-05-09T05:13:19.723Z,1.70
2024-05-09T05:15:47.422Z,1.40
2024-05-09T05:18:14.478Z,1.42
2024-05-09T05:20:41.386Z,1.50
2024-05-09T05:23:10.731Z,1.40
2024-05-09T05:25:37.014Z,1.50
2024-05-09T05:28:03.241Z,1.30
2024-05-09T05:30:34.426Z,1.27
2024-05-09T05:33:02.311Z,1.40
2024-05-09T05:35:28.839Z,1.65
2024-05-09T05:37:55.047Z,1.50
2024-05-09T05:40:28.514Z,1.70
2024-05-09T05:43:02.498Z,1.40
2024-05-09T05:45:28.544Z,1.50
2024-05-09T05:47:54.875Z,1.42
2024-05-09T05:50:27.872Z,2.00
2024-05-09T05:53:01.214Z,1.67
2024-05-09T05:55:27.263Z,1.80
2024-05-09T05:57:53.324Z,1.80
2024-05-09T06:00:29.182Z,1.38
2024-05-09T06:03:01.623Z,1.67
2024-05-09T06:05:28.189Z,1.50
2024-05-09T06:07:54.350Z,1.38
2024-05-09T06:10:25.491Z,1.33
2024-05-09T06:12:55.615Z,1.48
2024-05-09T06:15:21.651Z,1.35
2024-05-09T06:17:47.879Z,1.63
2024-05-09T06:20:20.547Z,1.30
2024-05-09T06:22:52.935Z,1.30
2024-05-09T06:25:19.018Z,1.40
2024-05-09T06:27:45.214Z,1.30
2024-05-09T06:30:24.819Z,1.60
2024-05-09T06:32:55.708Z,1.60
2024-05-09T06:35:21.900Z,1.33
2024-05-09T06:37:48.044Z,1.30
2024-05-09T06:40:17.475Z,1.40
2024-05-09T06:42:43.822Z,1.40
2024-05-09T06:45:09.890Z,1.23
2024-05-09T06:47:36.087Z,1.15
2024-05-09T06:50:02.709Z,1.75
2024-05-09T06:52:29.675Z,1.75
2024-05-09T06:54:55.727Z,1.40
2024-05-09T06:57:22.593Z,1.40
2024-05-09T06:59:48.645Z,1.35
2024-05-09T07:02:14.736Z,1.10
2024-05-09T07:04:40.853Z,1.35
2024-05-09T07:07:08.747Z,1.33
2024-05-09T07:09:34.845Z,1.63
2024-05-09T07:12:01.003Z,1.40
2024-05-09T07:14:27.376Z,1.27
2024-05-09T07:16:53.531Z,1.20
2024-05-09T07:19:19.779Z,2.08
2024-05-09T07:21:45.943Z,1.45
2024-05-09T07:24:11.989Z,1.60
2024-05-09T07:26:38.232Z,1.30
2024-05-09T07:29:04.389Z,1.13
2024-05-09T07:31:30.900Z,1.33
2024-05-09T07:33:57.098Z,1.23
2024-05-09T07:36:23.226Z,1.30
2024-05-09T07:38:49.298Z,1.40
2024-05-09T07:41:15.437Z,1.42
2024-05-09T07:43:41.537Z,1.30
2024-05-09T07:47:13.873Z,1.48
2024-05-09T07:50:35.478Z,1.50
2024-05-09T07:56:37.264Z,1.40
2024-05-09T07:59:03.461Z,1.65
2024-05-09T08:01:29.755Z,1.33
2024-05-09T08:03:56.128Z,1.48
2024-05-09T08:06:23.226Z,1.67
2024-05-09T08:08:49.449Z,1.50
2024-05-09T08:11:15.579Z,1.45
2024-05-09T08:13:41.745Z,1.63
2024-05-09T08:16:08.700Z,1.70
2024-05-09T08:18:35.188Z,1.63
2024-05-09T08:21:01.484Z,1.50
2024-05-09T08:23:28.184Z,1.33
2024-05-09T08:25:54.237Z,1.50
2024-05-09T08:28:20.766Z,1.50
2024-05-09T08:30:47.024Z,1.65
2024-05-09T08:33:13.355Z,1.27
2024-05-09T08:35:39.510Z,1.65
2024-05-09T08:38:07.030Z,1.30
2024-05-09T08:40:36.283Z,1.23
2024-05-09T08:43:08.363Z,2.05
2024-05-09T08:45:35.901Z,1.60
2024-05-09T08:48:04.944Z,1.42
2024-05-09T08:50:37.919Z,1.30
2024-05-09T09:00:38.641Z,1.38
2024-05-09T09:03:09.086Z,1.60
2024-05-09T09:05:38.063Z,1.55
2024-05-09T09:10:33.238Z,1.55
2024-05-09T09:13:03.850Z,1.25
2024-05-09T09:15:30.069Z,1.30
2024-05-09T09:17:59.970Z,1.45
2024-05-09T09:20:34.089Z,1.25
2024-05-09T09:23:02.924Z,1.40
2024-05-09T09:25:29.023Z,1.30
2024-05-09T09:27:57.050Z,1.40
2024-05-09T09:30:34.472Z,1.60
2024-05-09T09:33:03.788Z,1.50
2024-05-09T09:35:29.888Z,1.30
2024-05-09T09:38:00.707Z,1.10
2024-05-09T09:40:32.305Z,1.88
2024-05-09T09:43:01.056Z,2.33
2024-05-09T09:45:28.399Z,1.20
2024-05-09T09:47:56.584Z,1.33
2024-05-09T09:50:33.224Z,1.33
2024-05-09T09:53:01.489Z,1.33
2024-05-09T09:55:27.982Z,1.23
2024-05-09T09:57:55.741Z,1.50
2024-05-09T10:00:27.450Z,1.60
2024-05-09T10:02:58.564Z,1.40
2024-05-09T10:05:25.023Z,1.63
2024-05-09T10:07:52.735Z,1.10
2024-05-09T10:10:31.947Z,1.27
2024-05-09T10:13:00.525Z,1.30
2024-05-09T10:15:26.906Z,1.15
2024-05-09T10:17:53.330Z,1.30
2024-05-09T10:20:22.198Z,1.27
2024-05-09T10:22:53.752Z,1.23
2024-05-09T10:25:20.211Z,1.20
2024-05-09T10:27:54.768Z,1.10
2024-05-09T10:30:29.800Z,1.10
2024-05-09T10:33:01.783Z,1.27
2024-05-09T10:35:30.752Z,1.20
2024-05-09T10:38:02.756Z,1.10
2024-05-09T10:40:31.704Z,1.20
2024-05-09T10:43:01.957Z,1.38
2024-05-09T10:45:29.615Z,1.20
2024-05-09T10:47:55.856Z,1.35
2024-05-09T10:50:25.564Z,1.30
2024-05-09T10:52:55.013Z,1.10
2024-05-09T10:55:21.242Z,1.42
2024-05-09T10:57:47.758Z,1.30
2024-05-09T11:00:23.184Z,1.05
2024-05-09T11:02:56.227Z,1.20
2024-05-09T11:05:23.532Z,1.00
2024-05-09T11:07:50.520Z,0.80
2024-05-09T11:10:24.419Z,1.33
2024-05-09T11:12:53.670Z,1.42
2024-05-09T11:15:19.669Z,1.00
2024-05-09T11:17:45.862Z,1.10
2024-05-09T11:20:17.123Z,1.10
2024-05-09T11:22:49.206Z,1.15
2024-05-09T11:25:15.379Z,0.90
2024-05-09T11:27:41.844Z,1.00
2024-05-09T11:30:24.213Z,1.10
2024-05-09T11:32:58.079Z,1.20
2024-05-09T11:35:25.878Z,1.20
2024-05-09T11:37:53.257Z,1.25
2024-05-09T11:40:25.327Z,1.20
2024-05-09T11:42:54.687Z,1.10
2024-05-09T11:45:21.354Z,1.23
2024-05-09T11:47:47.819Z,1.10
2024-05-09T11:50:22.465Z,1.10
2024-05-09T11:52:53.523Z,1.00
2024-05-09T11:55:19.796Z,1.30
2024-05-09T11:57:45.910Z,1.10
2024-05-09T12:00:18.188Z,0.90
2024-05-09T12:02:52.020Z,1.15
2024-05-09T12:05:18.388Z,1.48
2024-05-09T12:07:44.586Z,1.27
2024-05-09T12:10:16.568Z,1.33
2024-05-09T12:15:12.104Z,1.08
2024-05-09T12:17:38.246Z,1.05
2024-05-09T12:20:09.030Z,1.10
2024-05-09T12:22:37.254Z,1.15
2024-05-09T12:25:04.319Z,1.20
2024-05-09T12:27:30.858Z,1.08
2024-05-09T12:29:56.931Z,1.20
2024-05-09T12:32:23.190Z,1.10
2024-05-09T12:34:49.286Z,1.00
2024-05-09T12:37:15.451Z,1.40
2024-05-09T12:39:41.587Z,1.15
2024-05-09T12:42:07.739Z,1.20
2024-05-09T12:44:33.826Z,1.65
2024-05-09T12:47:00.863Z,1.17
2024-05-09T12:49:27.035Z,1.30
2024-05-09T12:51:53.288Z,1.50
2024-05-09T12:54:19.374Z,1.20
2024-05-09T12:56:45.448Z,1.05
2024-05-09T12:59:11.546Z,1.30
2024-05-09T13:01:37.728Z,1.80
2024-05-09T13:04:04.404Z,1.30
2024-05-09T13:06:30.747Z,1.38
2024-05-09T13:08:57.020Z,1.00
2024-05-09T13:11:23.121Z,1.10
2024-05-09T13:13:49.211Z,1.20
2024-05-09T13:16:15.361Z,1.42
2024-05-09T13:18:41.550Z,1.17
2024-05-09T13:21:07.667Z,1.13
2024-05-09T13:23:33.787Z,1.30
2024-05-09T13:25:59.858Z,0.93
2024-05-09T13:28:26.267Z,1.40
2024-05-09T13:30:52.412Z,1.23
2024-05-09T13:33:18.720Z,1.23
2024-05-09T13:35:48.926Z,1.00
2024-05-09T13:38:20.763Z,1.20
2024-05-09T13:40:47.990Z,0.93
2024-05-09T13:43:14.428Z,1.23
2024-05-09T13:45:40.609Z,1.40
2024-05-09T13:48:09.079Z,1.35
2024-05-09T13:50:36.794Z,1.15
2024-05-09T13:53:04.278Z,1.27
2024-05-09T13:55:30.417Z,1.20
2024-05-09T13:57:56.671Z,0.90
2024-05-09T14:00:37.248Z,1.00
2024-05-09T14:03:09.464Z,1.38
2024-05-09T14:05:35.925Z,1.00
2024-05-09T14:08:02.745Z,1.40
2024-05-09T14:10:31.344Z,2.28
2024-05-09T14:12:58.336Z,0.95
2024-05-09T14:15:24.401Z,1.00
2024-05-09T14:17:50.578Z,1.15
2024-05-09T14:20:23.731Z,0.90
2024-05-09T14:22:56.591Z,1.10
2024-05-09T14:25:25.659Z,1.30
2024-05-09T14:27:51.838Z,1.30
2024-05-09T14:30:25.883Z,0.80
2024-05-09T14:32:59.829Z,1.15
2024-05-09T14:35:25.911Z,1.63
2024-05-09T14:37:51.966Z,1.00
2024-05-09T14:42:47.037Z,1.38
2024-05-09T14:45:13.184Z,0.93
2024-05-09T14:47:39.556Z,1.02
2024-05-09T14:50:07.092Z,0.90
2024-05-09T14:52:34.943Z,1.65
2024-05-09T14:55:01.291Z,1.10
2024-05-09T14:57:27.752Z,1.13
2024-05-09T14:59:53.791Z,0.90
2024-05-09T15:02:20.169Z,1.23
2024-05-09T15:04:46.506Z,1.08
2024-05-09T15:07:12.758Z,1.20
2024-05-09T15:09:38.872Z,1.02
2024-05-09T15:12:05.139Z,1.13
2024-05-09T15:14:31.195Z,1.00
2024-05-09T15:16:57.329Z,0.90
2024-05-09T15:19:23.511Z,1.00
2024-05-09T15:21:49.783Z,1.00
2024-05-09T15:24:15.910Z,1.10
2024-05-09T15:26:41.981Z,0.90
2024-05-09T15:29:08.544Z,1.05
2024-05-09T15:31:34.606Z,1.08
2024-05-09T15:34:00.757Z,1.10
2024-05-09T15:36:26.827Z,0.98
2024-05-09T15:38:55.001Z,1.00
2024-05-09T15:41:21.144Z,2.00
2024-05-09T15:43:47.185Z,1.23
2024-05-09T15:46:13.346Z,1.33
2024-05-09T15:48:44.347Z,1.13
2024-05-09T15:51:11.024Z,1.30
2024-05-09T15:53:37.090Z,0.98
2024-05-09T15:56:03.317Z,1.10
2024-05-09T15:58:29.531Z,1.20
2024-05-09T16:00:55.785Z,1.20
2024-05-09T16:03:21.974Z,1.02
2024-05-09T16:05:49.980Z,1.10
2024-05-09T16:08:16.241Z,1.10
2024-05-09T16:10:45.615Z,1.20
2024-05-09T16:13:12.740Z,0.95
2024-05-09T16:15:39.172Z,1.50
2024-05-09T16:18:06.162Z,1.00
2024-05-09T16:20:38.938Z,1.10
2024-05-09T16:23:08.287Z,1.15
2024-05-09T16:25:34.909Z,1.05
2024-05-09T16:28:02.085Z,1.20
2024-05-09T16:30:34.431Z,1.02
2024-05-09T16:33:03.506Z,1.20
2024-05-09T16:37:56.498Z,0.95
2024-05-09T16:40:30.233Z,1.35
2024-05-09T16:45:30.002Z,1.08
2024-05-09T16:47:56.513Z,1.20
2024-05-09T16:50:29.201Z,1.30
2024-05-09T16:52:58.734Z,1.10
2024-05-09T16:55:24.829Z,1.10
2024-05-09T16:57:51.490Z,1.20
2024-05-09T17:00:25.621Z,0.93
2024-05-09T17:02:57.924Z,1.60
2024-05-09T17:05:24.104Z,1.30
2024-05-09T17:07:50.425Z,1.30
2024-05-09T17:10:26.395Z,1.50
2024-05-09T17:12:57.995Z,1.17
2024-05-09T17:15:24.109Z,1.27
2024-05-09T17:17:50.262Z,1.50
2024-05-09T17:20:26.009Z,1.65
2024-05-09T17:22:58.565Z,2.00
2024-05-09T17:25:24.648Z,1.60
2024-05-09T17:27:50.749Z,1.38
2024-05-09T17:30:28.024Z,1.10
2024-05-09T17:32:58.869Z,1.23
2024-05-09T17:35:24.997Z,1.52
2024-05-09T17:37:51.110Z,1.80
2024-05-09T17:40:20.714Z,1.45
2024-05-09T17:42:50.761Z,2.13
2024-05-09T17:45:16.839Z,2.53
2024-05-09T17:47:43.088Z,1.98
2024-05-09T17:50:14.729Z,1.45
2024-05-09T17:52:43.327Z,1.80
2024-05-09T17:55:09.523Z,1.65
2024-05-09T17:57:35.655Z,1.35
2024-05-09T18:00:02.955Z,1.30
2024-05-09T18:02:31.131Z,1.60
2024-05-09T18:04:57.333Z,1.42
2024-05-09T18:07:23.497Z,1.73
2024-05-09T18:09:49.651Z,1.42
2024-05-09T18:12:15.839Z,1.35
2024-05-09T18:14:41.890Z,1.10
2024-05-09T18:17:07.961Z,1.50
2024-05-09T18:19:34.574Z,1.20
2024-05-09T18:22:00.932Z,1.65
2024-05-09T18:24:27.022Z,1.20
2024-05-09T18:26:53.330Z,1.50
2024-05-09T18:29:22.053Z,1.20
2024-05-09T18:34:14.450Z,1.40
2024-05-09T18:36:40.986Z,1.55
2024-05-09T18:39:07.140Z,1.30
2024-05-09T18:41:33.206Z,1.25
2024-05-09T18:43:59.353Z,1.40
2024-05-09T18:46:26.008Z,1.00
2024-05-09T18:48:52.329Z,1.83
2024-05-09T18:51:18.698Z,1.65
2024-05-09T18:53:48.381Z,1.27
2024-05-09T18:56:14.515Z,1.65
2024-05-09T18:58:40.657Z,1.63
2024-05-09T19:01:06.867Z,1.52
2024-05-09T19:03:33.244Z,1.65
2024-05-09T19:05:59.450Z,1.50
2024-05-09T19:08:25.698Z,1.40
2024-05-09T19:10:51.996Z,1.40
2024-05-09T19:13:18.260Z,1.23
2024-05-09T19:15:44.803Z,1.33
2024-05-09T19:18:15.118Z,1.45
2024-05-09T19:20:42.206Z,1.52
2024-05-09T19:23:09.206Z,1.33
2024-05-09T19:25:36.013Z,1.70
2024-05-09T19:28:03.716Z,1.30
2024-05-09T19:30:38.007Z,1.40
2024-05-09T19:33:08.411Z,1.50
2024-05-09T19:35:34.845Z,1.48
2024-05-09T19:38:01.346Z,1.45
2024-05-09T19:40:31.898Z,1.20
2024-05-09T19:43:00.874Z,1.10
2024-05-09T19:45:27.182Z,1.25
2024-05-09T19:47:53.476Z,1.20
2024-05-09T19:50:26.822Z,1.42
2024-05-09T19:53:01.730Z,1.40
2024-05-09T19:55:27.868Z,1.10
2024-05-09T19:57:54.002Z,1.23
2024-05-09T20:00:26.527Z,1.52
2024-05-09T20:02:58.728Z,1.50
2024-05-09T20:05:24.981Z,1.80
2024-05-09T20:07:51.138Z,1.90
2024-05-09T20:10:23.729Z,1.50
2024-05-09T20:12:53.277Z,1.20
2024-05-09T20:15:19.373Z,1.20
2024-05-09T20:17:45.516Z,1.30
2024-05-09T20:20:20.280Z,1.23
2024-05-09T20:22:54.225Z,1.50
2024-05-09T20:25:20.262Z,1.50
2024-05-09T20:27:46.372Z,1.25
2024-05-09T20:30:17.053Z,1.27
2024-05-09T20:32:47.636Z,1.40
2024-05-09T20:35:13.945Z,1.40
2024-05-09T20:37:39.980Z,1.23
2024-05-09T20:40:10.110Z,1.20
2024-05-09T20:42:44.262Z,1.30
2024-05-09T20:45:10.313Z,1.13
2024-05-09T20:47:37.897Z,1.30
2024-05-09T20:50:09.064Z,1.23
2024-05-09T20:52:39.476Z,1.35
2024-05-09T20:55:05.852Z,1.45
2024-05-09T20:57:32.030Z,1.27
2024-05-09T20:59:58.273Z,1.10
2024-05-09T21:02:24.548Z,1.40
2024-05-09T21:04:50.993Z,1.38
2024-05-09T21:07:17.329Z,1.20
2024-05-09T21:09:43.500Z,1.42
2024-05-09T21:12:09.606Z,1.10
2024-05-09T21:14:35.635Z,1.60
2024-05-09T21:17:01.815Z,1.20
2024-05-09T21:19:28.006Z,1.30
2024-05-09T21:21:54.100Z,1.40
2024-05-09T21:24:20.188Z,1.48
2024-05-09T21:26:46.227Z,1.08
2024-05-09T21:29:12.272Z,1.67
2024-05-09T21:31:38.382Z,1.52
2024-05-09T21:34:04.575Z,1.50
2024-05-09T21:36:30.712Z,1.15
2024-05-09T21:38:56.738Z,1.58
2024-05-09T21:41:24.107Z,1.40
2024-05-09T21:43:50.189Z,1.50
2024-05-09T21:46:16.313Z,1.40
2024-05-09T21:48:42.533Z,1.30
2024-05-09T21:51:15.367Z,1.33
2024-05-09T21:53:41.418Z,1.70
2024-05-09T21:56:08.048Z,1.42
2024-05-09T21:58:34.147Z,1.50
2024-05-09T22:01:00.383Z,1.30
2024-05-09T22:03:26.710Z,1.35
2024-05-09T22:05:52.932Z,1.20
2024-05-09T22:08:18.971Z,1.40
2024-05-09T22:10:45.211Z,1.45
2024-05-09T22:13:11.400Z,1.33
2024-05-09T22:15:39.665Z,1.83
2024-05-09T22:18:10.494Z,1.20
2024-05-09T22:20:42.857Z,1.50
2024-05-09T22:23:09.477Z,1.60
2024-05-09T22:25:36.312Z,1.50
2024-05-09T22:28:03.071Z,1.27
2024-05-09T22:32:58.575Z,1.40
2024-05-09T22:35:24.701Z,1.38
2024-05-09T22:37:50.768Z,1.63
2024-05-09T22:40:24.378Z,1.33
2024-05-09T22:42:59.543Z,1.23
2024-05-09T22:45:25.669Z,1.15
2024-05-09T22:47:51.821Z,1.52
2024-05-09T22:50:26.334Z,1.73
2024-05-09T22:55:19.515Z,1.50
2024-05-09T22:57:45.663Z,1.20
2024-05-09T23:00:15.746Z,1.33
2024-05-09T23:02:42.242Z,1.35
2024-05-09T23:05:08.524Z,1.83
2024-05-09T23:07:34.660Z,1.20
2024-05-09T23:10:00.816Z,1.40
2024-05-09T23:12:26.930Z,1.90
2024-05-09T23:14:52.970Z,2.25
2024-05-09T23:17:19.105Z,1.48
2024-05-09T23:19:45.320Z,1.75
2024-05-09T23:22:11.595Z,1.50
2024-05-09T23:24:38.405Z,1.10
2024-05-09T23:27:04.600Z,1.75
2024-05-09T23:29:30.703Z,1.80
2024-05-09T23:31:56.740Z,1.50
2024-05-09T23:34:23.559Z,1.45
2024-05-09T23:36:49.808Z,1.75
2024-05-09T23:39:17.699Z,1.77
2024-05-09T23:41:43.739Z,1.40
2024-05-09T23:44:09.881Z,1.45
2024-05-09T23:46:35.991Z,1.58
2024-05-09T23:49:02.203Z,1.63
2024-05-09T23:51:28.302Z,1.70
2024-05-09T23:53:54.340Z,1.60
2024-05-09T23:56:22.919Z,1.45
2024-05-09T23:58:48.965Z,1.70
